Time;durP1;ratioP1;P1;durP2;ratioP2;P2;SDS_P1;SDS_P2;PMS_P1;PMS_P2;Temp;Humidity;BMP_temperature;BMP_pressure;BME280_temperature;BME280_humidity;BME280_pressure;Samples;Min_cycle;Max_cycle;Signal;HPM_P1;HPM_P2
2023/02/10 00:00:21;;;;;;;31.47;23.20;;;;;;;;;;5005687;28;20251;-82
2023/02/10 00:02:47;;;;;;;29.07;24.50;;;;;;;;;;4984150;28;20219;-82
2023/02/10 00:05:15;;;;;;;30.67;23.30;;;;;;;;;;4984182;28;20308;-83
2023/02/10 00:07:43;;;;;;;31.67;24.80;;;;;;;;;;5015011;28;20247;-87
2023/02/10 00:10:10;;;;;;;32.33;24.63;;;;;;;;;;4969352;28;20217;-83
2023/02/10 00:12:37;;;;;;;29.60;23.07;;;;;;;;;;4991921;28;20223;-82
2023/02/10 00:15:04;;;;;;;32.67;22.97;;;;;;;;;;5003121;28;20264;-84
2023/02/10 00:17:32;;;;;;;31.67;23.57;;;;;;;;;;4992666;28;20236;-84
2023/02/10 00:20:00;;;;;;;30.83;23.73;;;;;;;;;;5009098;28;20337;-83
2023/02/10 00:22:28;;;;;;;31.07;23.47;;;;;;;;;;4994296;28;20232;-86
2023/02/10 00:24:54;;;;;;;31.90;24.63;;;;;;;;;;4974261;28;20235;-83
2023/02/10 00:27:23;;;;;;;32.63;23.70;;;;;;;;;;5015600;28;20287;-85
2023/02/10 00:29:49;;;;;;;33.90;23.87;;;;;;;;;;5011909;28;20225;-84
2023/02/10 00:32:17;;;;;;;37.17;23.80;;;;;;;;;;4979891;28;20225;-86
2023/02/10 00:34:45;;;;;;;28.23;22.90;;;;;;;;;;4963797;28;20224;-85
2023/02/10 00:37:12;;;;;;;31.53;23.63;;;;;;;;;;5004540;28;20882;-86
2023/02/10 00:39:39;;;;;;;30.07;23.43;;;;;;;;;;5012929;28;20217;-85
2023/02/10 00:42:05;;;;;;;35.93;23.40;;;;;;;;;;5010339;28;20268;-83
2023/02/10 00:44:33;;;;;;;31.77;23.93;;;;;;;;;;4979474;28;20241;-82
2023/02/10 00:46:58;;;;;;;28.47;22.47;;;;;;;;;;4988536;28;20355;-84
2023/02/10 00:49:26;;;;;;;30.97;23.63;;;;;;;;;;4995651;28;20222;-87
2023/02/10 00:51:57;;;;;;;29.27;23.60;;;;;;;;;;4978793;28;20227;-86
2023/02/10 00:54:24;;;;;;;29.37;23.07;;;;;;;;;;4979695;28;20225;-87
2023/02/10 00:56:50;;;;;;;31.53;23.97;;;;;;;;;;4978526;28;20209;-87
2023/02/10 00:59:21;;;;;;;31.10;23.00;;;;;;;;;;5000240;28;20276;-87
2023/02/10 01:01:46;;;;;;;29.03;22.77;;;;;;;;;;4976029;28;20225;-87
2023/02/10 01:04:12;;;;;;;33.17;23.37;;;;;;;;;;4997302;28;20217;-84
2023/02/10 01:06:37;;;;;;;28.50;21.43;;;;;;;;;;5003842;28;20228;-89
2023/02/10 01:09:06;;;;;;;29.13;22.77;;;;;;;;;;4984934;28;20221;-85
2023/02/10 01:11:41;;;;;;;29.40;23.17;;;;;;;;;;4980216;28;20213;-87
2023/02/10 01:14:08;;;;;;;32.00;23.73;;;;;;;;;;5006153;28;21113;-87
2023/02/10 01:16:33;;;;;;;32.63;24.43;;;;;;;;;;5014310;28;20229;-86
2023/02/10 01:19:01;;;;;;;27.87;22.00;;;;;;;;;;4991352;28;20275;-86
2023/02/10 01:21:28;;;;;;;29.47;23.17;;;;;;;;;;4972002;28;20228;-89
2023/02/10 01:23:55;;;;;;;41.10;32.60;;;;;;;;;;5014586;28;20222;-86
2023/02/10 01:26:24;;;;;;;35.30;26.93;;;;;;;;;;4993701;28;20209;-84
2023/02/10 01:28:50;;;;;;;31.10;24.20;;;;;;;;;;4978812;28;20224;-83
2023/02/10 01:31:18;;;;;;;29.50;23.27;;;;;;;;;;5009673;28;20224;-85
2023/02/10 01:33:43;;;;;;;30.17;22.93;;;;;;;;;;5008675;28;20564;-83
2023/02/10 01:36:13;;;;;;;27.90;23.30;;;;;;;;;;5003435;28;20303;-84
2023/02/10 01:38:41;;;;;;;34.33;23.77;;;;;;;;;;4998683;28;20213;-87
2023/02/10 01:41:10;;;;;;;28.40;22.60;;;;;;;;;;4988449;28;20241;-88
2023/02/10 01:44:06;;;;;;;27.90;22.83;;;;;;;;;;4983664;28;20315;-83
2023/02/10 01:46:33;;;;;;;25.00;21.43;;;;;;;;;;5034637;28;20325;-86
2023/02/10 01:49:06;;;;;;;28.27;21.83;;;;;;;;;;5003156;28;20678;-87
2023/02/10 01:51:38;;;;;;;29.20;23.47;;;;;;;;;;5014547;28;20697;-83
2023/02/10 01:54:04;;;;;;;26.87;22.47;;;;;;;;;;4982492;28;20371;-85
2023/02/10 01:56:30;;;;;;;28.27;23.40;;;;;;;;;;4977456;28;20232;-85
2023/02/10 01:58:56;;;;;;;29.73;23.20;;;;;;;;;;5004604;28;20213;-87
2023/02/10 02:01:23;;;;;;;30.53;22.77;;;;;;;;;;4992398;28;20221;-86
2023/02/10 02:03:49;;;;;;;33.10;23.67;;;;;;;;;;4966742;28;20598;-86
2023/02/10 02:06:17;;;;;;;28.83;22.10;;;;;;;;;;4983991;28;20225;-87
2023/02/10 02:08:43;;;;;;;28.87;22.47;;;;;;;;;;4983592;28;20229;-85
2023/02/10 02:11:27;;;;;;;28.73;23.60;;;;;;;;;;4969149;28;20225;-90
2023/02/10 02:14:11;;;;;;;36.40;23.57;;;;;;;;;;5034922;28;20205;-83
2023/02/10 02:16:58;;;;;;;25.73;21.23;;;;;;;;;;5006365;28;20344;-88
2023/02/10 02:19:45;;;;;;;30.83;22.30;;;;;;;;;;5025435;28;20317;-87
2023/02/10 02:22:35;;;;;;;31.57;22.73;;;;;;;;;;5013960;28;20338;-88
2023/02/10 02:25:00;;;;;;;34.83;22.10;;;;;;;;;;4987637;28;20213;-86
2023/02/10 02:27:56;;;;;;;32.63;23.77;;;;;;;;;;4999385;28;20236;-82
2023/02/10 02:30:50;;;;;;;28.43;22.50;;;;;;;;;;5027440;28;20303;-84
2023/02/10 02:33:23;;;;;;;27.97;22.93;;;;;;;;;;4994604;28;20239;-87
2023/02/10 02:35:54;;;;;;;33.23;24.80;;;;;;;;;;4962541;28;20288;-86
2023/02/10 02:38:22;;;;;;;27.17;21.97;;;;;;;;;;4990507;28;20224;-85
2023/02/10 02:40:50;;;;;;;31.13;23.23;;;;;;;;;;4959541;28;20225;-84
2023/02/10 02:43:18;;;;;;;31.57;23.80;;;;;;;;;;5009743;28;20312;-84
2023/02/10 02:45:46;;;;;;;29.87;22.87;;;;;;;;;;4958653;28;20208;-88
2023/02/10 02:48:23;;;;;;;29.30;22.63;;;;;;;;;;5011378;28;20260;-82
2023/02/10 02:51:17;;;;;;;29.63;24.13;;;;;;;;;;5011759;28;20224;-84
2023/02/10 02:53:55;;;;;;;25.53;22.77;;;;;;;;;;5001965;28;20215;-85
2023/02/10 02:56:35;;;;;;;28.77;23.10;;;;;;;;;;4976705;28;20348;-85
2023/02/10 02:59:14;;;;;;;27.27;22.10;;;;;;;;;;5017625;28;20225;-87
2023/02/10 03:01:44;;;;;;;26.10;22.53;;;;;;;;;;4951433;28;20229;-87
2023/02/10 03:04:11;;;;;;;29.73;23.00;;;;;;;;;;5015574;28;20966;-86
2023/02/10 03:06:39;;;;;;;27.47;22.40;;;;;;;;;;5008216;28;20221;-87
2023/02/10 03:09:05;;;;;;;32.20;23.83;;;;;;;;;;4952741;28;20274;-87
2023/02/10 03:11:33;;;;;;;27.10;22.57;;;;;;;;;;4979350;28;20232;-87
2023/02/10 03:13:58;;;;;;;28.67;23.50;;;;;;;;;;4955499;28;20208;-87
2023/02/10 03:16:24;;;;;;;29.07;23.47;;;;;;;;;;4961976;28;20578;-85
2023/02/10 03:18:49;;;;;;;30.57;23.40;;;;;;;;;;4951841;28;20228;-84
2023/02/10 03:21:17;;;;;;;28.30;22.93;;;;;;;;;;4976124;28;20705;-87
2023/02/10 03:23:45;;;;;;;30.13;24.60;;;;;;;;;;4994047;28;20226;-84
2023/02/10 03:26:10;;;;;;;28.80;24.73;;;;;;;;;;4966359;28;20217;-84
2023/02/10 03:28:36;;;;;;;29.57;24.00;;;;;;;;;;4997152;28;20272;-86
2023/02/10 03:31:08;;;;;;;29.50;22.47;;;;;;;;;;4979461;28;20733;-85
2023/02/10 03:33:34;;;;;;;29.80;24.03;;;;;;;;;;4995759;28;20240;-86
2023/02/10 03:36:00;;;;;;;32.80;25.40;;;;;;;;;;5010036;28;20602;-86
2023/02/10 03:38:28;;;;;;;36.37;24.70;;;;;;;;;;4974424;28;20230;-85
2023/02/10 03:40:54;;;;;;;30.67;24.63;;;;;;;;;;4995657;28;20227;-88
2023/02/10 03:43:20;;;;;;;28.47;24.20;;;;;;;;;;4995668;28;20221;-87
2023/02/10 03:45:45;;;;;;;30.37;24.40;;;;;;;;;;4983932;28;20225;-85
2023/02/10 03:48:11;;;;;;;33.57;24.00;;;;;;;;;;4972400;28;20284;-85
2023/02/10 03:50:37;;;;;;;28.67;24.37;;;;;;;;;;4993665;28;20309;-86
2023/02/10 03:53:02;;;;;;;29.77;24.67;;;;;;;;;;4995709;28;20217;-86
2023/02/10 03:55:28;;;;;;;32.93;23.70;;;;;;;;;;4990453;28;20225;-85
2023/02/10 03:57:53;;;;;;;26.23;23.27;;;;;;;;;;5007297;28;20571;-87
2023/02/10 04:00:21;;;;;;;27.70;23.80;;;;;;;;;;4978144;28;20234;-86
2023/02/10 04:02:47;;;;;;;34.73;25.37;;;;;;;;;;4961818;28;20239;-84
2023/02/10 04:05:12;;;;;;;30.33;24.87;;;;;;;;;;4987423;28;20213;-85
2023/02/10 04:07:40;;;;;;;32.10;24.80;;;;;;;;;;4991538;28;20230;-84
2023/02/10 04:10:06;;;;;;;29.47;22.87;;;;;;;;;;5013915;28;20599;-87
2023/02/10 04:12:34;;;;;;;25.90;22.73;;;;;;;;;;5000024;28;20216;-85
2023/02/10 04:15:03;;;;;;;27.57;23.30;;;;;;;;;;5001786;28;20742;-84
2023/02/10 04:17:31;;;;;;;29.03;23.90;;;;;;;;;;4998511;28;20316;-84
2023/02/10 04:20:02;;;;;;;29.73;23.27;;;;;;;;;;4984488;28;20217;-83
2023/02/10 04:22:31;;;;;;;29.37;22.23;;;;;;;;;;5001455;28;20221;-83
2023/02/10 04:24:56;;;;;;;32.70;24.93;;;;;;;;;;5003208;28;20594;-83
2023/02/10 04:27:22;;;;;;;28.63;23.23;;;;;;;;;;4975887;28;20231;-86
2023/02/10 04:29:50;;;;;;;30.03;23.63;;;;;;;;;;4975937;28;20233;-88
2023/02/10 04:32:15;;;;;;;30.33;23.13;;;;;;;;;;4961048;28;20214;-86
2023/02/10 04:34:45;;;;;;;31.40;24.30;;;;;;;;;;5009172;28;20221;-86
2023/02/10 04:37:11;;;;;;;28.33;22.97;;;;;;;;;;5007853;28;20308;-87
2023/02/10 04:39:38;;;;;;;33.87;24.17;;;;;;;;;;4971484;28;20323;-87
2023/02/10 04:42:06;;;;;;;28.53;22.87;;;;;;;;;;5018328;28;20858;-83
2023/02/10 04:44:32;;;;;;;29.73;24.23;;;;;;;;;;4982367;28;20240;-87
2023/02/10 04:46:57;;;;;;;30.23;23.30;;;;;;;;;;4992758;28;20213;-84
2023/02/10 04:49:24;;;;;;;33.67;23.37;;;;;;;;;;4992787;28;20674;-87
2023/02/10 04:51:49;;;;;;;33.63;23.67;;;;;;;;;;4968578;28;20215;-89
2023/02/10 04:54:17;;;;;;;31.03;23.27;;;;;;;;;;4992714;28;20218;-87
2023/02/10 04:56:44;;;;;;;27.63;23.27;;;;;;;;;;5010317;28;20602;-85
2023/02/10 04:59:10;;;;;;;29.60;24.27;;;;;;;;;;4992021;28;20225;-87
2023/02/10 05:01:35;;;;;;;38.40;24.30;;;;;;;;;;4986576;28;20229;-82
2023/02/10 05:04:03;;;;;;;31.40;24.67;;;;;;;;;;5014090;28;20320;-86
2023/02/10 05:06:29;;;;;;;32.40;22.33;;;;;;;;;;4967076;28;20222;-85
2023/02/10 05:08:54;;;;;;;28.17;23.43;;;;;;;;;;4995245;28;20243;-84
2023/02/10 05:11:20;;;;;;;28.00;23.83;;;;;;;;;;4959871;28;20232;-87
2023/02/10 05:13:48;;;;;;;26.83;22.83;;;;;;;;;;4985474;28;20216;-85
2023/02/10 05:16:13;;;;;;;27.67;22.43;;;;;;;;;;5013447;28;20665;-84
2023/02/10 05:18:39;;;;;;;30.63;23.03;;;;;;;;;;4995125;28;20222;-86
2023/02/10 05:21:07;;;;;;;26.23;22.23;;;;;;;;;;4998687;28;20225;-86
2023/02/10 05:23:33;;;;;;;26.70;21.70;;;;;;;;;;4961016;28;20275;-85
2023/02/10 05:25:59;;;;;;;26.57;20.10;;;;;;;;;;4996736;28;20229;-84
2023/02/10 05:28:29;;;;;;;32.13;23.43;;;;;;;;;;4975219;28;20225;-86
2023/02/10 05:30:55;;;;;;;27.70;21.60;;;;;;;;;;4990500;28;20677;-87
2023/02/10 05:33:24;;;;;;;25.57;20.80;;;;;;;;;;4994935;28;20702;-87
2023/02/10 05:35:49;;;;;;;27.60;22.07;;;;;;;;;;5010085;28;20227;-89
2023/02/10 05:38:15;;;;;;;29.97;22.07;;;;;;;;;;5017104;28;20216;-86
2023/02/10 05:40:40;;;;;;;30.77;22.33;;;;;;;;;;4976849;28;20241;-86
2023/02/10 05:43:08;;;;;;;26.20;22.00;;;;;;;;;;4994659;28;20228;-88
2023/02/10 05:45:34;;;;;;;26.90;22.47;;;;;;;;;;4979360;28;20312;-86
2023/02/10 05:48:02;;;;;;;28.67;23.23;;;;;;;;;;4981891;28;20357;-83
2023/02/10 05:50:29;;;;;;;28.13;23.33;;;;;;;;;;5014095;28;20225;-87
2023/02/10 05:52:57;;;;;;;32.37;22.70;;;;;;;;;;5018663;28;20225;-86
2023/02/10 05:55:24;;;;;;;28.20;22.53;;;;;;;;;;4996164;28;20224;-84
2023/02/10 05:57:51;;;;;;;26.73;22.83;;;;;;;;;;4982353;28;20209;-87
2023/02/10 06:00:17;;;;;;;26.37;23.07;;;;;;;;;;4980215;28;20290;-87
2023/02/10 06:02:45;;;;;;;26.40;21.80;;;;;;;;;;4982719;28;20255;-87
2023/02/10 06:05:14;;;;;;;31.13;24.43;;;;;;;;;;5013646;28;20369;-88
2023/02/10 06:07:39;;;;;;;29.03;23.97;;;;;;;;;;4981630;28;20281;-85
2023/02/10 06:10:08;;;;;;;29.77;22.30;;;;;;;;;;4966867;28;20230;-86
2023/02/10 06:12:33;;;;;;;28.57;21.90;;;;;;;;;;5011405;28;20224;-86
2023/02/10 06:15:01;;;;;;;28.47;23.67;;;;;;;;;;4990666;28;20225;-85
2023/02/10 06:17:27;;;;;;;29.50;23.73;;;;;;;;;;4994671;28;20221;-86
2023/02/10 06:19:55;;;;;;;31.23;24.57;;;;;;;;;;4983489;28;20278;-86
2023/02/10 06:22:23;;;;;;;31.37;23.30;;;;;;;;;;5002998;28;20236;-87
2023/02/10 06:24:48;;;;;;;32.70;25.00;;;;;;;;;;4992205;28;20213;-85
2023/02/10 06:27:14;;;;;;;29.23;24.13;;;;;;;;;;4995843;28;20221;-86
2023/02/10 06:29:40;;;;;;;30.93;23.60;;;;;;;;;;4968468;28;20279;-87
2023/02/10 06:32:05;;;;;;;29.93;23.80;;;;;;;;;;5009449;28;20598;-86
2023/02/10 06:34:31;;;;;;;30.17;23.77;;;;;;;;;;4976622;28;20274;-85
2023/02/10 06:36:59;;;;;;;28.47;24.27;;;;;;;;;;4967906;28;20215;-86
2023/02/10 06:39:24;;;;;;;27.47;23.20;;;;;;;;;;5027010;28;20646;-85
2023/02/10 06:41:52;;;;;;;30.43;24.63;;;;;;;;;;4974136;28;20220;-86
2023/02/10 06:44:25;;;;;;;34.93;24.87;;;;;;;;;;5015988;28;20292;-84
2023/02/10 06:46:51;;;;;;;26.17;22.83;;;;;;;;;;4961761;28;20217;-85
2023/02/10 06:49:18;;;;;;;29.17;24.97;;;;;;;;;;4987401;28;20251;-87
2023/02/10 06:51:46;;;;;;;32.23;25.27;;;;;;;;;;5017856;28;20231;-86
2023/02/10 06:54:14;;;;;;;27.00;23.87;;;;;;;;;;4996387;28;20221;-85
2023/02/10 06:56:41;;;;;;;29.00;24.97;;;;;;;;;;4998977;28;20224;-83
2023/02/10 06:59:09;;;;;;;34.13;23.57;;;;;;;;;;4984667;28;20311;-84
2023/02/10 07:01:37;;;;;;;35.30;25.33;;;;;;;;;;4974804;28;20257;-82
2023/02/10 07:04:03;;;;;;;37.43;26.03;;;;;;;;;;4994726;28;20225;-80
2023/02/10 07:06:28;;;;;;;31.33;24.27;;;;;;;;;;4982155;28;20227;-82
2023/02/10 07:08:54;;;;;;;29.73;23.97;;;;;;;;;;5017083;28;20697;-83
2023/02/10 07:11:19;;;;;;;34.33;25.20;;;;;;;;;;5017940;28;20239;-82
2023/02/10 07:13:45;;;;;;;32.57;24.83;;;;;;;;;;5007873;28;20720;-82
2023/02/10 07:16:14;;;;;;;33.70;26.67;;;;;;;;;;5023411;28;20231;-80
2023/02/10 07:18:40;;;;;;;33.47;25.10;;;;;;;;;;4980984;28;20237;-82
2023/02/10 07:21:08;;;;;;;32.37;25.33;;;;;;;;;;4992635;28;20225;-80
2023/02/10 07:23:34;;;;;;;38.17;26.00;;;;;;;;;;4974288;28;20245;-80
2023/02/10 07:25:59;;;;;;;31.10;24.57;;;;;;;;;;5014537;28;20220;-80
2023/02/10 07:28:27;;;;;;;30.77;24.90;;;;;;;;;;5016927;28;20278;-81
2023/02/10 07:30:53;;;;;;;28.83;22.97;;;;;;;;;;4979055;28;20305;-82
2023/02/10 07:33:18;;;;;;;31.80;25.67;;;;;;;;;;5000129;28;20313;-82
2023/02/10 07:35:44;;;;;;;31.70;23.93;;;;;;;;;;5017481;28;20235;-80
2023/02/10 07:38:12;;;;;;;37.83;24.87;;;;;;;;;;5017575;28;20224;-83
2023/02/10 07:40:37;;;;;;;28.67;24.00;;;;;;;;;;4999921;28;20247;-81
2023/02/10 07:43:03;;;;;;;32.50;24.47;;;;;;;;;;4996172;28;20221;-81
2023/02/10 07:45:39;;;;;;;33.83;24.40;;;;;;;;;;4981068;28;20228;-83
2023/02/10 07:48:05;;;;;;;30.17;26.03;;;;;;;;;;5031363;28;20243;-82
2023/02/10 07:50:30;;;;;;;30.33;24.03;;;;;;;;;;4985017;28;20228;-81
2023/02/10 07:52:56;;;;;;;28.13;23.73;;;;;;;;;;5000244;28;20217;-82
2023/02/10 07:55:23;;;;;;;34.43;26.77;;;;;;;;;;5000444;28;20232;-82
2023/02/10 07:57:49;;;;;;;30.60;25.23;;;;;;;;;;5017963;28;20219;-81
2023/02/10 08:00:16;;;;;;;30.43;24.03;;;;;;;;;;5013426;28;20221;-82
2023/02/10 08:02:42;;;;;;;40.30;24.57;;;;;;;;;;5000450;28;20256;-80
2023/02/10 08:05:10;;;;;;;29.40;25.33;;;;;;;;;;4983416;28;20228;-80
2023/02/10 08:07:36;;;;;;;33.60;23.53;;;;;;;;;;5010837;28;20232;-83
2023/02/10 08:10:03;;;;;;;31.37;23.73;;;;;;;;;;4982225;28;20602;-82
2023/02/10 08:12:34;;;;;;;31.60;24.40;;;;;;;;;;4997445;28;20232;-81
2023/02/10 08:15:02;;;;;;;38.90;22.93;;;;;;;;;;5018027;28;20221;-81
2023/02/10 08:17:27;;;;;;;32.83;24.57;;;;;;;;;;5013000;28;20286;-82
2023/02/10 08:19:53;;;;;;;32.40;22.77;;;;;;;;;;4998714;28;20220;-83
2023/02/10 08:22:21;;;;;;;33.03;22.37;;;;;;;;;;5015228;28;20224;-82
2023/02/10 08:24:48;;;;;;;29.57;22.80;;;;;;;;;;4996385;28;20236;-82
2023/02/10 08:27:16;;;;;;;26.53;22.40;;;;;;;;;;4999433;28;20231;-83
2023/02/10 08:29:44;;;;;;;28.50;22.20;;;;;;;;;;4994819;28;20229;-83
2023/02/10 08:32:18;;;;;;;29.60;21.73;;;;;;;;;;4979178;28;20210;-84
2023/02/10 08:34:49;;;;;;;25.03;22.37;;;;;;;;;;4982422;28;20274;-84
2023/02/10 08:37:17;;;;;;;27.00;21.77;;;;;;;;;;5001307;28;20220;-83
2023/02/10 08:39:48;;;;;;;29.00;22.43;;;;;;;;;;4997565;28;20228;-83
2023/02/10 08:42:15;;;;;;;30.10;22.57;;;;;;;;;;4969200;28;20221;-85
2023/02/10 08:44:41;;;;;;;30.43;24.00;;;;;;;;;;5022057;28;20255;-83
2023/02/10 08:47:11;;;;;;;28.80;23.10;;;;;;;;;;5005622;28;20236;-85
2023/02/10 08:49:37;;;;;;;28.63;23.03;;;;;;;;;;5026405;28;20224;-83
2023/02/10 08:52:03;;;;;;;30.50;23.47;;;;;;;;;;5010514;28;20244;-80
2023/02/10 08:54:31;;;;;;;26.63;22.50;;;;;;;;;;5046198;28;20224;-82
2023/02/10 08:57:09;;;;;;;26.37;22.87;;;;;;;;;;4997373;28;20239;-81
2023/02/10 08:59:38;;;;;;;28.50;23.57;;;;;;;;;;5005347;28;20213;-86
2023/02/10 09:02:09;;;;;;;24.97;21.43;;;;;;;;;;5023654;28;20423;-82
2023/02/10 09:04:38;;;;;;;29.00;22.10;;;;;;;;;;4994810;28;20237;-81
2023/02/10 09:07:06;;;;;;;25.43;20.40;;;;;;;;;;4978208;28;20206;-81
2023/02/10 09:09:31;;;;;;;24.90;20.63;;;;;;;;;;5005508;28;20247;-81
2023/02/10 09:11:57;;;;;;;29.83;21.30;;;;;;;;;;4972376;28;20230;-81
2023/02/10 09:14:25;;;;;;;27.87;21.50;;;;;;;;;;5024805;28;20229;-82
2023/02/10 09:16:51;;;;;;;29.37;22.23;;;;;;;;;;4978821;28;20267;-82
2023/02/10 09:19:25;;;;;;;27.87;21.67;;;;;;;;;;4997791;28;20232;-82
2023/02/10 09:21:55;;;;;;;31.10;21.20;;;;;;;;;;4999232;28;20259;-80
2023/02/10 09:24:26;;;;;;;32.17;22.07;;;;;;;;;;5009538;28;20283;-82
2023/02/10 09:26:54;;;;;;;28.47;22.17;;;;;;;;;;4996292;28;20275;-82
2023/02/10 09:29:24;;;;;;;28.43;22.37;;;;;;;;;;5021691;28;20259;-82
2023/02/10 09:31:52;;;;;;;28.57;21.80;;;;;;;;;;4999618;28;20224;-83
2023/02/10 09:34:20;;;;;;;23.43;20.90;;;;;;;;;;5027118;28;20197;-83
2023/02/10 09:36:46;;;;;;;26.43;21.10;;;;;;;;;;5009918;28;20200;-83
2023/02/10 09:39:14;;;;;;;26.17;21.47;;;;;;;;;;5011050;28;20229;-81
2023/02/10 09:41:47;;;;;;;28.30;20.73;;;;;;;;;;5007518;28;20233;-82
2023/02/10 09:44:26;;;;;;;29.07;21.30;;;;;;;;;;5007871;28;20239;-81
2023/02/10 09:47:11;;;;;;;25.67;20.00;;;;;;;;;;5019019;28;20229;-81
2023/02/10 09:49:46;;;;;;;26.87;21.37;;;;;;;;;;5012784;28;20236;-82
2023/02/10 09:52:14;;;;;;;25.03;20.37;;;;;;;;;;5026779;28;20339;-81
2023/02/10 09:54:42;;;;;;;26.83;23.50;;;;;;;;;;5040813;28;20240;-82
2023/02/10 09:57:44;;;;;;;22.70;20.30;;;;;;;;;;5028545;28;20919;-79
2023/02/10 10:00:23;;;;;;;24.53;21.20;;;;;;;;;;4967530;28;20274;-83
2023/02/10 10:02:50;;;;;;;27.10;20.70;;;;;;;;;;5022933;28;20249;-81
2023/02/10 10:05:33;;;;;;;31.63;25.27;;;;;;;;;;5017027;28;20221;-81
2023/02/10 10:08:02;;;;;;;26.37;22.27;;;;;;;;;;5017284;28;20221;-83
2023/02/10 10:10:40;;;;;;;27.73;21.97;;;;;;;;;;4986539;28;20217;-82
2023/02/10 10:13:27;;;;;;;27.67;22.53;;;;;;;;;;4970184;28;20216;-86
2023/02/10 10:16:13;;;;;;;27.60;22.33;;;;;;;;;;4995869;28;20348;-82
2023/02/10 10:18:54;;;;;;;25.10;22.30;;;;;;;;;;5013858;28;20231;-81
2023/02/10 10:21:29;;;;;;;34.17;22.53;;;;;;;;;;5011808;28;20229;-83
2023/02/10 10:24:15;;;;;;;32.13;22.53;;;;;;;;;;4999121;28;20252;-82
2023/02/10 10:26:57;;;;;;;23.37;20.87;;;;;;;;;;4994803;28;20254;-83
2023/02/10 10:29:28;;;;;;;29.47;22.47;;;;;;;;;;5020009;28;20239;-82
2023/02/10 10:32:07;;;;;;;26.70;21.27;;;;;;;;;;5005354;28;20225;-80
2023/02/10 10:34:39;;;;;;;25.70;21.90;;;;;;;;;;4968441;28;20236;-83
2023/02/10 10:37:16;;;;;;;25.20;20.30;;;;;;;;;;4981329;28;20251;-83
2023/02/10 10:39:46;;;;;;;24.23;21.27;;;;;;;;;;4999453;28;20240;-81
2023/02/10 10:42:40;;;;;;;22.17;19.90;;;;;;;;;;4978510;28;20217;-80
2023/02/10 10:45:23;;;;;;;22.70;19.33;;;;;;;;;;5023590;28;20216;-84
2023/02/10 10:48:26;;;;;;;23.67;19.83;;;;;;;;;;5010399;28;20247;-82
2023/02/10 10:50:54;;;;;;;20.60;17.63;;;;;;;;;;5005924;28;20229;-83
2023/02/10 10:53:47;;;;;;;21.23;18.20;;;;;;;;;;5021802;28;20207;-82
2023/02/10 10:56:33;;;;;;;28.70;19.70;;;;;;;;;;4992716;28;20217;-80
2023/02/10 10:58:59;;;;;;;21.47;19.07;;;;;;;;;;5024774;28;20231;-81
2023/02/10 11:01:36;;;;;;;23.97;18.53;;;;;;;;;;5006424;28;20268;-80
2023/02/10 11:04:07;;;;;;;23.73;17.57;;;;;;;;;;4985180;28;20256;-84
2023/02/10 11:06:37;;;;;;;24.50;19.00;;;;;;;;;;5002891;28;20268;-84
2023/02/10 11:09:08;;;;;;;19.07;16.93;;;;;;;;;;5022087;28;20221;-82
2023/02/10 11:11:38;;;;;;;21.23;17.13;;;;;;;;;;5013874;28;20229;-84
2023/02/10 11:14:28;;;;;;;23.80;17.47;;;;;;;;;;5005817;28;20201;-83
2023/02/10 11:17:00;;;;;;;21.70;16.67;;;;;;;;;;5015489;28;20228;-83
2023/02/10 11:19:38;;;;;;;23.43;16.23;;;;;;;;;;5028583;28;20228;-80
2023/02/10 11:22:13;;;;;;;21.37;15.80;;;;;;;;;;5028228;28;20212;-82
2023/02/10 11:24:51;;;;;;;18.60;15.43;;;;;;;;;;4976301;28;20267;-84
2023/02/10 11:27:24;;;;;;;23.10;15.67;;;;;;;;;;4988091;28;20220;-82
2023/02/10 11:29:54;;;;;;;24.77;16.03;;;;;;;;;;4962448;28;20264;-80
2023/02/10 11:32:29;;;;;;;21.00;15.50;;;;;;;;;;4987741;28;20281;-81
2023/02/10 11:34:56;;;;;;;21.40;15.67;;;;;;;;;;5037509;28;20213;-82
2023/02/10 11:37:28;;;;;;;19.57;14.27;;;;;;;;;;4972100;28;20221;-81
2023/02/10 11:39:55;;;;;;;20.50;16.20;;;;;;;;;;5022607;28;20321;-82
2023/02/10 11:42:27;;;;;;;17.57;13.83;;;;;;;;;;5034681;28;20211;-84
2023/02/10 11:45:03;;;;;;;15.53;13.70;;;;;;;;;;4991414;28;20280;-82
2023/02/10 11:47:30;;;;;;;21.67;13.80;;;;;;;;;;5041849;28;20220;-80
2023/02/10 11:50:00;;;;;;;17.73;14.20;;;;;;;;;;4998819;28;20217;-82
2023/02/10 11:52:33;;;;;;;18.03;13.37;;;;;;;;;;5006722;28;20272;-80
2023/02/10 11:55:03;;;;;;;16.83;13.90;;;;;;;;;;5002174;28;20284;-81
2023/02/10 12:01:13;;;;;;;15.90;13.63;;;;;;;;;;4995802;28;20233;-83
2023/02/10 12:03:50;;;;;;;18.40;13.60;;;;;;;;;;5014486;28;20224;-82
2023/02/10 12:06:36;;;;;;;22.87;14.13;;;;;;;;;;5004917;28;20230;-81
2023/02/10 12:09:22;;;;;;;17.40;13.10;;;;;;;;;;4985575;28;20245;-84
2023/02/10 12:11:58;;;;;;;16.20;12.60;;;;;;;;;;5032435;28;20221;-81
2023/02/10 12:14:35;;;;;;;19.33;14.17;;;;;;;;;;5027076;28;20291;-83
2023/02/10 12:17:19;;;;;;;19.00;13.37;;;;;;;;;;5006366;28;20288;-85
2023/02/10 12:19:59;;;;;;;17.23;12.57;;;;;;;;;;5019146;28;20221;-85
2023/02/10 12:22:34;;;;;;;19.83;13.00;;;;;;;;;;5026766;28;20236;-82
2023/02/10 12:25:29;;;;;;;18.33;13.67;;;;;;;;;;5000464;28;20251;-80
2023/02/10 12:28:20;;;;;;;16.47;13.57;;;;;;;;;;5020449;28;20249;-80
2023/02/10 12:31:19;;;;;;;18.60;13.10;;;;;;;;;;5005910;28;20237;-82
2023/02/10 12:34:07;;;;;;;20.70;13.17;;;;;;;;;;5018828;28;20718;-81
2023/02/10 12:37:09;;;;;;;14.90;13.13;;;;;;;;;;5025798;28;20221;-81
2023/02/10 12:40:13;;;;;;;14.93;12.03;;;;;;;;;;4970361;28;20238;-80
2023/02/10 12:42:41;;;;;;;16.57;11.17;;;;;;;;;;5007823;28;20248;-80
2023/02/10 12:45:23;;;;;;;20.33;13.03;;;;;;;;;;5021731;28;20221;-80
2023/02/10 12:47:49;;;;;;;16.27;12.83;;;;;;;;;;4999279;28;20236;-82
2023/02/10 12:50:39;;;;;;;19.47;13.43;;;;;;;;;;5004419;28;20229;-82
2023/02/10 12:53:21;;;;;;;16.87;12.47;;;;;;;;;;5025027;28;20218;-83
2023/02/10 12:55:55;;;;;;;16.50;12.30;;;;;;;;;;5016462;28;20289;-81
2023/02/10 12:58:27;;;;;;;16.47;12.33;;;;;;;;;;5022756;28;20264;-82
2023/02/10 13:01:15;;;;;;;17.47;13.77;;;;;;;;;;5020464;28;20224;-82
2023/02/10 13:03:42;;;;;;;19.60;12.23;;;;;;;;;;4994425;28;20237;-81
2023/02/10 13:06:10;;;;;;;20.00;13.47;;;;;;;;;;4995052;28;20244;-81
2023/02/10 13:08:38;;;;;;;15.97;12.90;;;;;;;;;;4993436;28;20291;-82
2023/02/10 13:11:16;;;;;;;21.00;12.70;;;;;;;;;;4996234;28;20289;-83
2023/02/10 13:13:44;;;;;;;23.70;13.40;;;;;;;;;;4995986;28;20304;-83
2023/02/10 13:16:15;;;;;;;18.20;13.00;;;;;;;;;;4988841;28;20220;-83
2023/02/10 13:19:06;;;;;;;18.90;14.00;;;;;;;;;;4944038;28;20895;-84
2023/02/10 13:22:00;;;;;;;16.50;11.97;;;;;;;;;;4989083;28;20229;-82
2023/02/10 13:24:30;;;;;;;18.77;13.47;;;;;;;;;;4961269;28;20641;-84
2023/02/10 13:27:24;;;;;;;17.07;12.70;;;;;;;;;;5013971;28;20222;-84
2023/02/10 13:30:31;;;;;;;15.70;12.20;;;;;;;;;;4975080;28;20732;-82
2023/02/10 13:33:12;;;;;;;19.77;12.33;;;;;;;;;;4971493;28;20687;-82
2023/02/10 13:35:40;;;;;;;19.50;12.33;;;;;;;;;;4961463;28;20247;-81
2023/02/10 13:38:06;;;;;;;17.30;13.00;;;;;;;;;;4987781;28;20296;-81
2023/02/10 13:43:41;;;;;;;20.60;13.43;;;;;;;;;;4983727;28;20589;-83
2023/02/10 13:46:29;;;;;;;24.20;14.50;;;;;;;;;;5022215;28;20243;-82
2023/02/10 13:48:59;;;;;;;26.27;16.70;;;;;;;;;;4980330;28;20283;-83
2023/02/10 13:51:37;;;;;;;20.60;13.00;;;;;;;;;;5009116;28;20221;-82
2023/02/10 13:54:03;;;;;;;17.63;13.70;;;;;;;;;;4957642;28;20349;-82
2023/02/10 13:56:31;;;;;;;17.70;14.70;;;;;;;;;;4980190;28;20217;-81
2023/02/10 13:59:03;;;;;;;19.37;14.83;;;;;;;;;;4994566;28;20225;-82
2023/02/10 14:01:49;;;;;;;19.50;13.30;;;;;;;;;;4997538;28;20251;-81
2023/02/10 14:04:17;;;;;;;19.03;15.93;;;;;;;;;;4996838;28;20238;-82
2023/02/10 14:06:47;;;;;;;20.17;13.93;;;;;;;;;;5031231;28;20706;-81
2023/02/10 14:09:19;;;;;;;19.57;13.07;;;;;;;;;;4993641;28;20229;-82
2023/02/10 14:11:46;;;;;;;18.07;14.07;;;;;;;;;;5041117;28;20255;-79
2023/02/10 14:14:40;;;;;;;37.40;25.80;;;;;;;;;;4994615;28;20276;-80
2023/02/10 14:17:15;;;;;;;24.67;16.93;;;;;;;;;;5025685;28;20283;-80
2023/02/10 14:19:43;;;;;;;21.37;14.50;;;;;;;;;;5039198;28;20335;-81
2023/02/10 14:22:35;;;;;;;17.57;14.27;;;;;;;;;;5022765;28;20233;-82
2023/02/10 14:25:33;;;;;;;17.60;14.63;;;;;;;;;;5014059;28;20229;-82
2023/02/10 14:27:59;;;;;;;20.23;15.30;;;;;;;;;;4972906;28;20389;-83
2023/02/10 14:30:44;;;;;;;20.87;16.60;;;;;;;;;;5004339;28;20240;-82
2023/02/10 14:33:28;;;;;;;21.50;16.13;;;;;;;;;;5000623;28;20271;-82
2023/02/10 14:35:58;;;;;;;22.70;17.97;;;;;;;;;;5010608;28;20224;-84
2023/02/10 14:38:28;;;;;;;23.50;19.03;;;;;;;;;;4984767;28;20247;-82
2023/02/10 14:40:54;;;;;;;26.07;18.80;;;;;;;;;;4990494;28;20226;-83
2023/02/10 14:43:32;;;;;;;27.10;19.10;;;;;;;;;;4998558;28;20237;-83
2023/02/10 14:45:58;;;;;;;21.57;16.73;;;;;;;;;;5032650;28;20656;-83